Accueil
METAR-TAF:

METAR-TAF

Aéroports :

Millinocket Municipal Airport

Millinocket, Maine, États-Unis

latitude: 45-38-52N, longitude: 068-41-31W, altitude: 124 m

Observation

Le bulletin a été fait il y a 20 minutes, à 11:53 UTC
Vent calme
Température -16°C
Humidité 84%
Pression 1005 hPa
Visibilité: 4.8 km
Ciel couvert à une hauteur de 200 ft
brume

METAR: KMLT 291153Z AUTO 00000KT 3SM BR OVC002 M16/M18 A2969 RMK AO2 SLP067 70004 I6001 T11611183 11111 21183 53003

Heure: 07:13 (12:13 UTC)


TAF: absent

Observations et prévisions météorologiques de plus de 4000 aéroports (messages METAR et TAF).

Les stations disponibles sont représentées par des disques jaunes et rouges sur la carte.

Passer la souris dessus pour voir le nom de la station.

Cliquer dessus pour voir les observations et prévisions météorologiques.

Pour changer de carte: cliquez sur les boutons verts avec une croix noire pour zoomer, sur le bouton vert avec un tiret pour effectuer un zoom arrière, ou sur les flèches vertes pour les cartes adjacentes.


METAR-TAF: